Time;durP1;ratioP1;P1;durP2;ratioP2;P2;SDS_P1;SDS_P2;PMS_P1;PMS_P2;Temp;Humidity;BMP_temperature;BMP_pressure;BME280_temperature;BME280_humidity;BME280_pressure;Samples;Min_cycle;Max_cycle;Signal;HPM_P1;HPM_P2
2023/03/12 00:00:51;;;;;;;138.10;15.98;;;;;;;8.67;100.00;99598.41;6159107;23;20020;-96
2023/03/12 00:03:16;;;;;;;110.05;16.73;;;;;;;8.65;100.00;99577.91;6159490;23;20003;-95
2023/03/12 00:05:43;;;;;;;135.05;17.63;;;;;;;8.55;100.00;99582.81;6159178;23;20025;-94
2023/03/12 00:08:09;;;;;;;168.95;21.05;;;;;;;8.56;100.00;99563.91;6159309;23;20005;-94
2023/03/12 00:10:36;;;;;;;115.68;14.70;;;;;;;8.75;100.00;99609.03;6171524;23;20482;-95
2023/03/12 00:13:02;;;;;;;153.85;20.67;;;;;;;8.67;100.00;99588.94;6214659;23;20042;-95
2023/03/12 00:15:27;;;;;;;139.55;16.10;;;;;;;8.63;100.00;99576.34;6188679;23;20032;-94
2023/03/12 00:17:53;;;;;;;171.75;19.77;;;;;;;8.61;100.00;99583.34;6189549;23;20013;-95
2023/03/12 00:20:19;;;;;;;153.82;18.27;;;;;;;8.63;100.00;99604.66;6189236;23;20060;-95
2023/03/12 00:22:44;;;;;;;155.90;16.23;;;;;;;8.64;100.00;99601.16;6214311;23;20515;-92
2023/03/12 00:25:13;;;;;;;131.55;16.02;;;;;;;8.74;100.00;99622.81;6188784;23;20039;-96
2023/03/12 00:27:39;;;;;;;128.68;16.17;;;;;;;8.53;100.00;99596.69;6213864;23;20047;-94
2023/03/12 00:30:05;;;;;;;161.75;21.08;;;;;;;8.42;100.00;99589.66;6189627;23;20005;-96
2023/03/12 00:32:34;;;;;;;130.27;16.65;;;;;;;8.71;100.00;99612.72;6214055;23;20000;-95
2023/03/12 00:35:00;;;;;;;137.93;16.42;;;;;;;8.59;100.00;99585.22;6214306;23;20004;-95
2023/03/12 00:37:26;;;;;;;121.97;15.32;;;;;;;8.74;100.00;99607.38;6188931;23;20097;-95
2023/03/12 00:39:51;;;;;;;133.50;17.75;;;;;;;8.57;100.00;99598.97;6188822;23;20362;-96
2023/03/12 00:42:17;;;;;;;151.38;16.42;;;;;;;8.63;100.00;99596.94;6188819;23;20007;-95
2023/03/12 00:44:43;;;;;;;124.60;16.45;;;;;;;8.63;100.00;99591.78;6214494;23;20104;-94
2023/03/12 00:47:09;;;;;;;130.73;17.08;;;;;;;8.69;100.00;99576.81;6214138;23;20044;-95
2023/03/12 00:49:35;;;;;;;121.47;14.48;;;;;;;8.75;100.00;99575.56;6189152;23;19997;-94
2023/03/12 00:52:00;;;;;;;142.10;16.58;;;;;;;8.72;100.00;99573.22;6188688;23;19997;-95
2023/03/12 00:54:26;;;;;;;109.72;16.73;;;;;;;8.64;100.00;99583.16;6189285;23;20008;-95
2023/03/12 00:56:51;;;;;;;140.35;17.25;;;;;;;8.66;100.00;99596.75;6189125;23;19997;-95
2023/03/12 00:59:16;;;;;;;122.63;17.35;;;;;;;8.66;100.00;99586.47;6189317;23;20059;-94
2023/03/12 01:01:42;;;;;;;133.70;15.20;;;;;;;8.61;100.00;99588.47;6213587;23;20313;-94
2023/03/12 01:04:08;;;;;;;146.07;17.02;;;;;;;8.68;100.00;99576.88;6213812;23;20446;-95
2023/03/12 01:06:33;;;;;;;137.20;18.20;;;;;;;8.68;100.00;99592.31;6188558;23;20458;-95
2023/03/12 01:09:05;;;;;;;136.32;20.35;;;;;;;8.68;100.00;99589.75;6188813;23;20032;-95
2023/03/12 01:11:31;;;;;;;134.68;19.17;;;;;;;8.65;100.00;99574.50;6188964;23;20008;-94
2023/03/12 01:14:01;;;;;;;151.40;17.80;;;;;;;8.63;100.00;99571.22;6190254;23;20009;-94
2023/03/12 01:16:29;;;;;;;126.43;16.70;;;;;;;8.76;100.00;99601.22;6215773;23;20323;-95
2023/03/12 01:18:56;;;;;;;114.60;14.23;;;;;;;8.70;100.00;99599.03;6215430;23;20000;-96
2023/03/12 01:21:22;;;;;;;120.35;16.15;;;;;;;8.70;100.00;99598.19;6215322;23;20009;-95
2023/03/12 01:23:48;;;;;;;145.85;15.90;;;;;;;8.79;100.00;99607.91;6215314;23;20039;-96
2023/03/12 01:26:13;;;;;;;126.20;17.38;;;;;;;8.74;100.00;99590.19;6215588;23;20012;-96
2023/03/12 01:28:39;;;;;;;151.43;16.63;;;;;;;8.78;100.00;99611.44;6190221;23;20091;-95
2023/03/12 01:31:07;;;;;;;130.63;15.82;;;;;;;8.74;100.00;99595.34;6190291;23;20469;-95
2023/03/12 01:33:32;;;;;;;137.05;15.73;;;;;;;8.77;100.00;99625.19;6189807;23;20001;-95
2023/03/12 01:35:57;;;;;;;123.07;16.50;;;;;;;8.78;100.00;99624.28;6190824;23;20012;-94
2023/03/12 01:38:23;;;;;;;124.40;15.85;;;;;;;8.65;100.00;99605.38;6190234;23;20347;-95
2023/03/12 01:40:48;;;;;;;137.38;17.17;;;;;;;8.69;100.00;99596.56;6190071;23;20089;-95
2023/03/12 01:43:24;;;;;;;113.18;15.85;;;;;;;8.75;100.00;99596.16;6190335;23;20008;-95
2023/03/12 01:46:18;;;;;;;126.85;14.63;;;;;;;8.76;100.00;99605.53;6215109;23;20032;-95
2023/03/12 01:48:48;;;;;;;101.88;13.85;;;;;;;8.74;100.00;99609.97;6215645;23;20355;-96
2023/03/12 01:51:16;;;;;;;123.60;15.05;;;;;;;8.76;100.00;99624.38;6215715;23;20012;-95
2023/03/12 01:53:45;;;;;;;107.70;15.00;;;;;;;8.54;100.00;99594.03;6215757;23;20256;-95
2023/03/12 01:56:14;;;;;;;142.45;17.48;;;;;;;8.64;100.00;99608.88;6215561;23;20009;-95
2023/03/12 01:58:44;;;;;;;100.07;14.40;;;;;;;8.53;100.00;99602.69;6215694;23;20047;-96
2023/03/12 02:01:09;;;;;;;99.07;14.80;;;;;;;8.52;100.00;99606.16;6215885;23;20107;-95
2023/03/12 02:03:35;;;;;;;108.72;16.02;;;;;;;8.67;100.00;99624.13;6215559;23;20009;-95
2023/03/12 02:06:07;;;;;;;94.10;14.70;;;;;;;8.47;100.00;99597.91;6215097;23;20007;-96
2023/03/12 02:08:36;;;;;;;85.72;11.40;;;;;;;8.73;100.00;99645.16;6191120;23;20032;-95
2023/03/12 02:11:02;;;;;;;107.95;17.13;;;;;;;8.57;100.00;99619.56;6197393;23;20012;-94
2023/03/12 02:13:28;;;;;;;100.75;13.57;;;;;;;8.24;100.00;99601.88;6161223;23;20017;-94
2023/03/12 02:15:53;;;;;;;86.07;12.40;;;;;;;8.33;100.00;99627.00;6160922;23;20008;-95
2023/03/12 02:18:20;;;;;;;101.03;13.43;;;;;;;7.99;100.00;99617.09;6161091;23;20005;-96
2023/03/12 02:21:12;;;;;;;116.00;13.95;;;;;;;7.88;100.00;99607.50;6160392;23;20005;-96
2023/03/12 02:24:02;;;;;;;109.05;14.50;;;;;;;7.87;100.00;99623.78;6160015;23;20052;-94
2023/03/12 02:26:28;;;;;;;101.97;14.50;;;;;;;7.74;100.00;99620.31;6160146;23;20043;-94
2023/03/12 02:28:55;;;;;;;110.60;13.50;;;;;;;7.79;100.00;99610.59;6160196;23;20008;-94
2023/03/12 02:31:25;;;;;;;134.32;17.90;;;;;;;7.87;100.00;99632.31;6160290;23;20087;-94
2023/03/12 02:33:52;;;;;;;95.20;14.32;;;;;;;7.93;100.00;99629.41;6160123;23;20428;-94
2023/03/12 02:36:18;;;;;;;126.80;15.30;;;;;;;8.02;100.00;99622.91;6160298;23;20331;-94
2023/03/12 02:38:46;;;;;;;103.57;14.10;;;;;;;8.05;100.00;99612.44;6160418;23;20005;-95
2023/03/12 02:41:15;;;;;;;113.80;13.75;;;;;;;8.26;100.00;99646.28;6160376;23;20008;-93
2023/03/12 02:43:44;;;;;;;116.78;14.25;;;;;;;8.05;100.00;99627.84;6159790;23;20087;-95
2023/03/12 02:46:09;;;;;;;109.85;13.88;;;;;;;8.33;100.00;99651.88;6159905;23;20021;-95
2023/03/12 02:48:35;;;;;;;110.78;13.85;;;;;;;8.15;100.00;99639.22;6160038;23;20008;-95
2023/03/12 02:51:02;;;;;;;116.60;15.57;;;;;;;8.13;100.00;99646.19;6159912;23;20001;-94
2023/03/12 02:53:28;;;;;;;113.57;15.57;;;;;;;8.13;100.00;99671.09;6159354;23;20013;-95
2023/03/12 02:55:54;;;;;;;124.93;14.43;;;;;;;7.91;100.00;99661.25;6159441;23;20436;-95
2023/03/12 02:58:20;;;;;;;93.05;12.75;;;;;;;7.84;100.00;99665.91;6159558;23;20008;-94
2023/03/12 03:00:46;;;;;;;100.28;13.00;;;;;;;7.85;100.00;99671.88;6159708;23;20024;-94
2023/03/12 03:03:12;;;;;;;100.47;13.18;;;;;;;7.90;100.00;99695.56;6159786;23;20001;-94
2023/03/12 03:05:37;;;;;;;122.47;15.48;;;;;;;7.54;100.00;99667.72;6159444;23;20495;-94
2023/03/12 03:08:03;;;;;;;104.10;15.02;;;;;;;7.58;100.00;99672.56;6159294;23;20005;-96
2023/03/12 03:10:29;;;;;;;106.18;13.50;;;;;;;7.79;100.00;99697.94;6170822;23;20005;-94
2023/03/12 03:12:54;;;;;;;111.43;14.48;;;;;;;7.72;100.00;99679.47;6214328;23;20004;-94
2023/03/12 03:15:20;;;;;;;116.15;17.02;;;;;;;7.71;100.00;99696.63;6189006;23;20004;-95
2023/03/12 03:17:45;;;;;;;129.90;14.52;;;;;;;7.59;100.00;99692.19;6189048;23;20053;-94
2023/03/12 03:20:11;;;;;;;126.25;15.38;;;;;;;7.69;100.00;99685.63;6189343;23;20011;-94
2023/03/12 03:22:37;;;;;;;112.22;18.02;;;;;;;7.53;100.00;99669.41;6189514;23;20009;-96
2023/03/12 03:25:03;;;;;;;118.85;14.63;;;;;;;7.47;100.00;99649.25;6189261;23;20005;-95
2023/03/12 03:27:29;;;;;;;128.43;17.23;;;;;;;7.62;100.00;99681.75;6214364;23;20082;-96
2023/03/12 03:29:54;;;;;;;107.28;13.55;;;;;;;7.60;100.00;99665.59;6214701;23;20008;-95
2023/03/12 03:32:20;;;;;;;115.40;13.63;;;;;;;7.66;100.00;99667.81;6189406;23;20446;-95
2023/03/12 03:34:45;;;;;;;110.28;15.05;;;;;;;7.89;100.00;99688.78;6214237;23;20017;-95
2023/03/12 03:37:11;;;;;;;123.57;16.83;;;;;;;7.76;100.00;99668.13;6189681;23;20075;-94
2023/03/12 03:39:36;;;;;;;121.70;18.85;;;;;;;7.69;100.00;99682.22;6189239;23;20016;-95
2023/03/12 03:42:02;;;;;;;122.72;14.07;;;;;;;7.57;100.00;99645.22;6214425;23;20009;-95
2023/03/12 03:44:27;;;;;;;107.88;13.68;;;;;;;7.59;100.00;99635.69;6213921;23;20005;-95
2023/03/12 03:46:54;;;;;;;123.47;18.05;;;;;;;7.59;100.00;99651.09;6189018;23;20009;-95
2023/03/12 03:49:19;;;;;;;98.00;12.70;;;;;;;7.70;100.00;99656.44;6188886;23;20000;-95
2023/03/12 03:51:45;;;;;;;97.95;15.18;;;;;;;7.63;100.00;99656.88;6190093;23;20094;-96
2023/03/12 03:54:11;;;;;;;116.07;14.43;;;;;;;7.57;100.00;99652.94;6189163;23;20446;-95
2023/03/12 03:56:37;;;;;;;117.65;12.98;;;;;;;7.62;100.00;99643.22;6214474;23;20011;-95
2023/03/12 03:59:03;;;;;;;122.07;16.25;;;;;;;7.67;100.00;99679.72;6189515;23;20005;-95
2023/03/12 04:01:30;;;;;;;105.28;13.50;;;;;;;7.67;100.00;99679.72;6214229;23;20075;-95
2023/03/12 04:03:56;;;;;;;105.85;13.80;;;;;;;7.79;100.00;99687.66;6188915;23;20008;-94
2023/03/12 04:06:21;;;;;;;118.80;13.55;;;;;;;7.79;100.00;99678.19;6188683;23;20084;-95
2023/03/12 04:08:47;;;;;;;110.70;13.95;;;;;;;7.89;100.00;99699.88;6188923;23;20142;-94
2023/03/12 04:11:15;;;;;;;111.85;17.45;;;;;;;8.09;100.00;99732.09;6189014;23;20005;-94
2023/03/12 04:13:41;;;;;;;105.45;14.48;;;;;;;8.00;100.00;99699.25;6213852;23;20020;-95
2023/03/12 04:16:07;;;;;;;140.32;18.00;;;;;;;7.89;100.00;99704.19;6214152;23;20051;-94
2023/03/12 04:18:34;;;;;;;111.18;11.90;;;;;;;7.91;100.00;99715.22;6214090;23;20424;-95
2023/03/12 04:21:01;;;;;;;117.20;15.63;;;;;;;7.98;100.00;99721.66;6213716;23;20055;-95
2023/03/12 04:23:26;;;;;;;106.18;18.30;;;;;;;8.05;100.00;99756.34;6188738;23;20028;-96
2023/03/12 04:25:52;;;;;;;113.75;11.80;;;;;;;7.96;100.00;99726.03;6213735;23;20415;-95
2023/03/12 04:28:17;;;;;;;88.03;12.15;;;;;;;7.95;100.00;99724.41;6189134;23;20436;-95
2023/03/12 04:30:45;;;;;;;104.45;15.90;;;;;;;7.98;100.00;99721.66;6189022;23;20012;-96
2023/03/12 04:33:11;;;;;;;103.03;12.63;;;;;;;8.16;100.00;99737.72;6189058;23;20004;-96
2023/03/12 04:35:36;;;;;;;90.53;11.10;;;;;;;7.86;100.00;99719.78;6188784;23;20016;-94
2023/03/12 04:38:02;;;;;;;109.28;13.65;;;;;;;7.72;100.00;99716.25;6189831;23;20011;-96
2023/03/12 04:40:28;;;;;;;88.95;12.15;;;;;;;7.75;100.00;99711.84;6217596;23;20091;-95
2023/03/12 04:42:54;;;;;;;91.57;13.30;;;;;;;7.67;100.00;99712.31;6219591;23;20008;-96
2023/03/12 04:45:19;;;;;;;103.20;13.50;;;;;;;7.60;100.00;99698.16;6194767;23;20059;-96
2023/03/12 04:47:45;;;;;;;87.45;9.75;;;;;;;7.47;100.00;99708.31;6196098;23;20005;-96
2023/03/12 04:50:11;;;;;;;96.35;12.27;;;;;;;7.39;100.00;99708.72;6196502;23;20403;-96
2023/03/12 04:52:37;;;;;;;94.60;14.75;;;;;;;7.43;100.00;99701.69;6219909;23;20083;-96
2023/03/12 04:55:03;;;;;;;75.70;11.65;;;;;;;7.47;100.00;99716.00;6193843;23;20012;-96
2023/03/12 04:57:28;;;;;;;73.53;10.65;;;;;;;7.39;100.00;99706.16;6193846;23;20004;-96
2023/03/12 04:59:54;;;;;;;80.22;11.15;;;;;;;7.58;100.00;99735.94;6218092;23;20019;-95
2023/03/12 05:02:19;;;;;;;83.85;11.30;;;;;;;7.67;100.00;99725.97;6193338;23;20028;-95
2023/03/12 05:04:45;;;;;;;97.57;13.77;;;;;;;7.52;100.00;99721.72;6194400;23;20032;-96
2023/03/12 05:07:11;;;;;;;100.30;10.77;;;;;;;7.66;100.00;99706.34;6193641;23;20012;-96
2023/03/12 05:09:36;;;;;;;82.90;11.50;;;;;;;7.72;100.00;99703.41;6217670;23;20036;-96
2023/03/12 05:12:02;;;;;;;94.00;12.07;;;;;;;7.69;100.00;99692.50;6163085;23;20076;-96
2023/03/12 05:14:28;;;;;;;90.80;12.32;;;;;;;7.75;100.00;99681.03;6162849;23;20020;-96
2023/03/12 05:16:53;;;;;;;90.68;11.15;;;;;;;7.71;100.00;99691.50;6163581;23;20098;-96
2023/03/12 05:19:19;;;;;;;87.35;11.63;;;;;;;7.92;100.00;99716.84;6162846;23;20007;-96
2023/03/12 05:21:45;;;;;;;69.90;10.48;;;;;;;7.79;100.00;99692.78;6162568;23;20012;-95
2023/03/12 05:24:11;;;;;;;105.53;13.38;;;;;;;7.76;100.00;99701.50;6161461;23;20001;-96
2023/03/12 05:26:36;;;;;;;87.35;12.88;;;;;;;7.80;100.00;99705.53;6161449;23;20015;-93
2023/03/12 05:29:03;;;;;;;74.90;10.68;;;;;;;7.87;100.00;99716.28;6160583;23;19998;-96
2023/03/12 05:31:33;;;;;;;73.57;13.30;;;;;;;7.89;100.00;99733.28;6160862;23;19997;-94
2023/03/12 05:34:01;;;;;;;91.15;11.75;;;;;;;7.62;100.00;99717.69;6160799;23;20440;-95
2023/03/12 05:36:26;;;;;;;86.63;11.23;;;;;;;7.86;100.00;99736.03;6161834;23;20001;-95
2023/03/12 05:38:52;;;;;;;75.10;12.30;;;;;;;7.83;100.00;99755.94;6162039;23;20072;-95
2023/03/12 05:41:29;;;;;;;79.43;10.27;;;;;;;7.64;100.00;99733.84;6160809;23;20084;-95
2023/03/12 05:43:56;;;;;;;84.40;11.27;;;;;;;7.31;100.00;99721.16;6160793;23;20005;-96
2023/03/12 05:46:24;;;;;;;77.28;11.30;;;;;;;7.37;100.00;99731.09;6160510;23;20005;-95
2023/03/12 05:48:50;;;;;;;76.32;12.88;;;;;;;7.34;100.00;99735.56;6160513;23;20009;-95
2023/03/12 05:51:15;;;;;;;73.68;9.88;;;;;;;7.45;100.00;99756.34;6160613;23;20444;-95
2023/03/12 05:53:41;;;;;;;81.00;12.15;;;;;;;7.44;100.00;99770.91;6160323;23;20012;-95
2023/03/12 05:56:10;;;;;;;66.05;10.43;;;;;;;7.47;100.00;99767.34;6160577;23;20012;-95
2023/03/12 05:58:36;;;;;;;81.85;9.55;;;;;;;7.51;100.00;99758.59;6160428;23;20420;-95
2023/03/12 06:01:03;;;;;;;89.38;12.52;;;;;;;7.50;100.00;99749.19;6160680;23;20443;-96
2023/03/12 06:03:29;;;;;;;94.80;11.82;;;;;;;7.55;100.00;99760.03;6160813;23;20001;-94
2023/03/12 06:05:55;;;;;;;106.40;12.50;;;;;;;7.54;100.00;99775.56;6160458;23;20012;-95
2023/03/12 06:08:22;;;;;;;82.63;10.60;;;;;;;7.47;100.00;99787.91;6160612;23;20001;-94
2023/03/12 06:10:50;;;;;;;88.68;10.65;;;;;;;7.57;100.00;99790.78;6175110;23;20040;-94
2023/03/12 06:13:16;;;;;;;88.57;10.82;;;;;;;7.64;100.00;99784.41;6215416;23;20001;-94
2023/03/12 06:15:41;;;;;;;90.22;10.85;;;;;;;7.82;100.00;99775.63;6190443;23;20513;-95
2023/03/12 06:18:07;;;;;;;75.00;10.63;;;;;;;7.90;100.00;99772.63;6190344;23;20032;-93
2023/03/12 06:20:32;;;;;;;81.80;12.18;;;;;;;7.81;100.00;99753.44;6214832;23;20008;-94
2023/03/12 06:22:57;;;;;;;72.07;9.65;;;;;;;7.88;100.00;99764.22;6189614;23;20009;-94
2023/03/12 06:25:23;;;;;;;92.63;12.68;;;;;;;7.89;100.00;99782.09;6190538;23;20454;-93
2023/03/12 06:27:48;;;;;;;70.07;9.57;;;;;;;8.01;100.00;99759.19;6189452;23;20087;-93
2023/03/12 06:30:14;;;;;;;79.10;9.00;;;;;;;7.84;100.00;99737.84;6190197;23;20327;-93
2023/03/12 06:32:40;;;;;;;86.72;13.02;;;;;;;7.90;100.00;99745.22;6191740;23;20463;-95
2023/03/12 06:35:06;;;;;;;72.15;8.40;;;;;;;8.06;100.00;99755.44;6192132;23;20005;-95
2023/03/12 06:37:31;;;;;;;58.88;7.75;;;;;;;7.99;100.00;99751.56;6192442;23;20091;-96
2023/03/12 06:39:57;;;;;;;73.07;7.47;;;;;;;8.12;100.00;99762.78;6192493;23;20005;-95
2023/03/12 06:42:22;;;;;;;67.43;11.52;;;;;;;8.05;100.00;99761.50;6190568;23;20489;-95
2023/03/12 06:44:49;;;;;;;66.10;9.63;;;;;;;8.06;100.00;99740.00;6190896;23;20015;-96
2023/03/12 06:47:14;;;;;;;72.20;10.38;;;;;;;8.13;100.00;99754.16;6190075;23;20012;-94
2023/03/12 06:49:40;;;;;;;60.70;10.18;;;;;;;8.36;100.00;99754.53;6189298;23;20317;-94
2023/03/12 06:52:05;;;;;;;61.55;6.95;;;;;;;8.25;100.00;99734.63;6189456;23;20047;-95
2023/03/12 06:54:31;;;;;;;50.70;7.85;;;;;;;8.46;100.00;99744.56;6189231;23;20061;-94
2023/03/12 06:56:58;;;;;;;56.95;9.48;;;;;;;8.47;100.00;99736.78;6189375;23;20032;-95
2023/03/12 06:59:24;;;;;;;52.78;7.47;;;;;;;8.49;100.00;99739.25;6189775;23;20001;-95
2023/03/12 07:01:50;;;;;;;44.03;6.45;;;;;;;8.54;100.00;99763.78;6189862;23;20012;-94
2023/03/12 07:04:15;;;;;;;67.28;9.65;;;;;;;8.42;100.00;99749.06;6189498;23;20746;-95
2023/03/12 07:06:41;;;;;;;54.13;8.23;;;;;;;8.68;100.00;99755.25;6189409;23;20016;-94
2023/03/12 07:09:06;;;;;;;75.35;9.25;;;;;;;8.58;100.00;99743.84;6188841;23;20014;-95
2023/03/12 07:11:32;;;;;;;59.95;10.43;;;;;;;8.72;100.00;99766.97;6189050;23;20309;-94
2023/03/12 07:13:57;;;;;;;68.93;8.38;;;;;;;8.71;100.00;99769.66;6189181;23;20435;-94
2023/03/12 07:16:23;;;;;;;69.63;9.70;;;;;;;8.53;100.00;99751.84;6214572;23;20477;-95
2023/03/12 07:18:48;;;;;;;59.78;8.05;;;;;;;8.68;100.00;99762.09;6189120;23;20011;-94
2023/03/12 07:21:21;;;;;;;63.00;9.85;;;;;;;8.64;100.00;99768.38;6189254;23;20054;-94
2023/03/12 07:23:49;;;;;;;65.22;8.90;;;;;;;8.43;100.00;99750.72;6213934;23;19996;-94
2023/03/12 07:26:15;;;;;;;73.10;9.05;;;;;;;8.69;100.00;99786.94;6188874;23;20067;-95
2023/03/12 07:28:40;;;;;;;56.10;7.20;;;;;;;8.84;100.00;99775.72;6215515;23;20009;-95
2023/03/12 07:31:06;;;;;;;58.08;7.07;;;;;;;9.12;100.00;99798.03;6189153;23;20008;-95
2023/03/12 07:33:31;;;;;;;73.85;9.75;;;;;;;8.98;100.00;99780.84;6189530;23;20011;-95
2023/03/12 07:35:57;;;;;;;58.58;8.98;;;;;;;9.12;100.00;99774.84;6189748;23;20024;-93
2023/03/12 07:38:23;;;;;;;61.22;8.38;;;;;;;9.43;100.00;99791.75;6189265;23;20032;-94
2023/03/12 07:40:54;;;;;;;66.47;9.65;;;;;;;9.45;100.00;99806.31;6189196;23;20036;-94
2023/03/12 07:43:19;;;;;;;58.17;8.90;;;;;;;9.26;100.00;99792.00;6189252;23;20011;-94
2023/03/12 07:45:45;;;;;;;58.38;7.40;;;;;;;9.38;100.00;99796.38;6188847;23;20001;-94
2023/03/12 07:48:10;;;;;;;60.35;8.63;;;;;;;9.33;100.00;99815.63;6189232;23;20001;-94
2023/03/12 07:50:37;;;;;;;63.03;8.57;;;;;;;9.26;100.00;99817.75;6188768;23;20031;-95
2023/03/12 07:53:03;;;;;;;56.22;9.88;;;;;;;9.13;100.00;99816.88;6189943;23;20004;-95
2023/03/12 07:55:30;;;;;;;68.50;9.95;;;;;;;9.10;100.00;99802.44;6188995;23;20004;-94
2023/03/12 07:57:57;;;;;;;70.70;11.02;;;;;;;9.22;100.00;99811.16;6188993;23;20015;-93
2023/03/12 08:00:24;;;;;;;70.28;10.27;;;;;;;9.47;100.00;99801.91;6189017;23;20020;-94
2023/03/12 08:02:49;;;;;;;61.05;12.35;;;;;;;10.19;100.00;99818.72;6213745;23;20056;-95
2023/03/12 08:05:15;;;;;;;58.75;8.27;;;;;;;10.16;100.00;99839.50;6188941;23;20004;-95
2023/03/12 08:07:40;;;;;;;61.58;9.07;;;;;;;10.10;100.00;99824.47;6188950;23;20020;-95
2023/03/12 08:10:07;;;;;;;61.63;9.30;;;;;;;9.88;100.00;99839.66;6189074;23;20008;-95
2023/03/12 08:12:33;;;;;;;61.85;10.30;;;;;;;9.56;100.00;99832.22;6188434;23;20028;-95
2023/03/12 08:14:59;;;;;;;58.55;9.40;;;;;;;9.56;100.00;99835.63;6212468;23;20012;-94
2023/03/12 08:17:24;;;;;;;59.25;10.60;;;;;;;9.73;100.00;99852.59;6187585;23;20000;-94
2023/03/12 08:19:50;;;;;;;60.35;10.10;;;;;;;9.49;100.00;99823.25;6211788;23;20011;-95
2023/03/12 08:22:15;;;;;;;63.28;8.93;;;;;;;9.39;100.00;99828.97;6189430;23;20435;-94
2023/03/12 08:24:41;;;;;;;72.05;12.00;;;;;;;9.31;100.00;99820.03;6189262;23;19996;-95
2023/03/12 08:27:07;;;;;;;71.68;9.90;;;;;;;9.30;100.00;99829.53;6213755;23;20008;-95
2023/03/12 08:29:32;;;;;;;51.08;7.95;;;;;;;9.27;100.00;99824.56;6190231;23;20309;-96
2023/03/12 08:31:58;;;;;;;44.47;7.72;;;;;;;9.29;100.00;99847.63;6189368;23;20040;-95
2023/03/12 08:34:24;;;;;;;60.13;10.63;;;;;;;9.24;100.00;99829.88;6188893;23;20042;-95
2023/03/12 08:36:49;;;;;;;53.30;7.18;;;;;;;9.51;100.00;99839.41;6214385;23;20445;-95
2023/03/12 08:39:15;;;;;;;55.22;7.38;;;;;;;9.61;100.00;99843.06;6190095;23;20036;-95
2023/03/12 08:41:40;;;;;;;49.90;7.95;;;;;;;9.75;100.00;99832.69;6190418;23;20340;-95
2023/03/12 08:44:06;;;;;;;65.28;10.48;;;;;;;10.33;100.00;99846.19;6189082;23;20077;-95
2023/03/12 08:46:31;;;;;;;60.45;9.10;;;;;;;10.96;100.00;99813.56;6214272;23;20008;-95
2023/03/12 08:48:57;;;;;;;65.70;11.88;;;;;;;12.47;94.16;99836.41;6189191;23;20015;-96
2023/03/12 08:51:22;;;;;;;48.25;7.75;;;;;;;15.25;75.98;99804.41;6192469;23;20032;-95
2023/03/12 08:53:48;;;;;;;44.80;8.15;;;;;;;14.75;77.67;99809.56;6213705;23;20458;-96
2023/03/12 08:56:13;;;;;;;39.65;7.03;;;;;;;13.34;82.29;99814.16;6188508;23;20036;-95
2023/03/12 08:58:39;;;;;;;44.08;6.30;;;;;;;13.76;78.98;99787.50;6189135;23;20004;-95
2023/03/12 09:01:11;;;;;;;40.80;7.00;;;;;;;12.67;81.01;99790.88;6189471;23;20016;-95
2023/03/12 09:03:37;;;;;;;34.10;6.50;;;;;;;12.38;84.03;99812.84;6189332;23;20019;-96
2023/03/12 09:06:12;;;;;;;34.17;6.85;;;;;;;16.63;69.26;99812.00;6188890;23;20013;-95
2023/03/12 09:08:38;;;;;;;37.90;7.38;;;;;;;15.80;64.80;99794.38;6189461;23;20017;-96
2023/03/12 09:11:04;;;;;;;37.88;6.60;;;;;;;16.68;63.50;99783.78;6188863;23;20013;-95
2023/03/12 09:13:30;;;;;;;39.95;7.35;;;;;;;19.35;52.79;99793.16;6188803;23;20009;-95
2023/03/12 09:16:00;;;;;;;33.63;6.07;;;;;;;20.74;49.35;99775.53;6189334;23;20406;-96
2023/03/12 09:18:27;;;;;;;31.50;6.57;;;;;;;21.00;47.69;99768.41;6191151;23;20000;-94
2023/03/12 09:20:53;;;;;;;35.30;6.10;;;;;;;21.49;46.78;99768.94;6191346;23;20011;-96
2023/03/12 09:23:18;;;;;;;25.33;4.88;;;;;;;23.15;43.60;99788.94;6216444;23;20008;-95
2023/03/12 09:25:45;;;;;;;23.33;5.20;;;;;;;24.45;42.48;99803.63;6190904;23;20031;-95
2023/03/12 09:28:11;;;;;;;23.35;5.55;;;;;;;22.96;44.53;99785.03;6194842;23;20008;-96
2023/03/12 09:30:36;;;;;;;34.33;7.28;;;;;;;22.46;43.83;99776.13;6191923;23;20016;-96
2023/03/12 09:33:02;;;;;;;24.00;5.75;;;;;;;18.71;51.74;99770.03;6191423;23;20005;-96
2023/03/12 09:35:30;;;;;;;28.40;5.68;;;;;;;17.49;56.67;99785.66;6192139;23;20047;-96
2023/03/12 09:37:56;;;;;;;27.13;5.60;;;;;;;16.65;59.40;99763.19;6191495;23;20023;-96
2023/03/12 09:40:24;;;;;;;29.50;5.80;;;;;;;18.42;56.82;99803.53;6191046;23;20036;-95
2023/03/12 09:42:56;;;;;;;25.77;5.53;;;;;;;18.63;53.75;99788.31;6188678;23;20004;-95
2023/03/12 09:45:46;;;;;;;21.17;4.65;;;;;;;18.69;52.95;99772.00;6193134;23;20087;-96
2023/03/12 09:48:26;;;;;;;31.45;6.20;;;;;;;19.16;54.02;99779.34;6180589;23;20009;-96
2023/03/12 09:50:53;;;;;;;35.03;7.13;;;;;;;20.80;48.38;99784.56;6193281;23;20004;-96
2023/03/12 09:53:30;;;;;;;24.52;5.00;;;;;;;22.20;45.90;99798.41;6206983;23;20000;-95
2023/03/12 09:56:07;;;;;;;26.33;5.22;;;;;;;23.36;42.83;99772.34;6211684;23;20012;-96
2023/03/12 09:58:36;;;;;;;20.70;4.32;;;;;;;25.90;38.41;99795.56;6206007;23;20004;-93
2023/03/12 10:01:11;;;;;;;16.90;4.18;;;;;;;23.64;42.39;99817.19;6196377;23;20415;-94
2023/03/12 10:04:02;;;;;;;22.25;5.13;;;;;;;22.61;43.90;99811.13;6191580;23;20016;-93
2023/03/12 10:06:50;;;;;;;31.07;7.30;;;;;;;19.57;50.19;99778.63;6196682;23;20015;-93
2023/03/12 10:09:35;;;;;;;22.63;4.80;;;;;;;17.91;53.29;99761.56;6218479;23;20055;-92
2023/03/12 10:12:19;;;;;;;27.60;6.50;;;;;;;18.69;53.43;99782.44;6192701;23;20398;-94
2023/03/12 10:15:01;;;;;;;31.75;5.15;;;;;;;15.69;60.49;99755.44;6191386;23;20016;-93
2023/03/12 10:17:53;;;;;;;20.38;4.82;;;;;;;16.11;60.81;99739.53;6192625;23;20005;-92
2023/03/12 10:21:06;;;;;;;31.48;4.95;;;;;;;17.52;57.15;99748.84;6194225;23;20439;-94
2023/03/12 10:23:37;;;;;;;25.83;5.65;;;;;;;16.76;59.98;99770.03;6209132;23;20015;-92
2023/03/12 10:26:24;;;;;;;28.70;5.70;;;;;;;16.63;59.73;99755.53;6199862;23;20023;-92
2023/03/12 10:29:00;;;;;;;29.00;5.88;;;;;;;15.96;62.12;99735.72;6203118;23;20008;-93
2023/03/12 10:31:49;;;;;;;27.58;6.28;;;;;;;16.75;61.42;99776.19;6202010;23;20046;-96
2023/03/12 10:34:39;;;;;;;;;;;;;;;;;;;;;
2023/03/12 10:40:01;;;;;;;32.28;6.82;;;;;;;18.64;53.37;99813.47;6200563;22;20031;-92
2023/03/12 10:42:28;;;;;;;26.52;5.07;;;;;;;20.53;50.25;99985.84;6226221;23;20402;-92
2023/03/12 10:45:12;;;;;;;23.50;4.75;;;;;;;21.85;45.29;99772.72;6230742;23;20005;-92
2023/03/12 10:47:42;;;;;;;24.80;4.70;;;;;;;23.31;44.92;99858.97;6232306;23;20004;-89
2023/03/12 10:50:16;;;;;;;19.38;4.45;;;;;;;22.80;44.10;99736.09;6226453;23;20005;-93
2023/03/12 10:52:43;;;;;;;18.58;4.03;;;;;;;24.56;41.15;99725.81;6224316;23;20039;-94
2023/03/12 10:55:22;;;;;;;23.65;4.60;;;;;;;25.28;39.41;99776.41;6231782;23;20080;-93
2023/03/12 10:57:49;;;;;;;21.10;5.10;;;;;;;23.40;40.62;99715.66;6228524;23;20008;-93
2023/03/12 11:00:21;;;;;;;21.08;4.88;;;;;;;22.93;41.77;99721.44;6224864;23;20004;-93
2023/03/12 11:03:04;;;;;;;25.58;4.53;;;;;;;26.72;36.00;99645.97;6229247;23;20425;-93
2023/03/12 11:05:36;;;;;;;22.02;4.22;;;;;;;25.05;38.09;99685.13;6226969;23;20009;-92
2023/03/12 11:08:02;;;;;;;;;;;;;;;25.11;38.30;99726.56;6227728;23;19993;-95
2023/03/12 11:10:47;;;;;;;19.20;5.25;;;;;;;26.95;34.72;99604.91;6224251;23;20231;-93
2023/03/12 11:13:40;;;;;;;20.13;5.03;;;;;;;25.87;36.27;99709.56;6219855;23;20000;-96
2023/03/12 11:16:15;;;;;;;18.13;4.88;;;;;;;22.83;41.98;99724.38;6211753;23;20065;-96
2023/03/12 11:19:00;;;;;;;22.23;5.25;;;;;;;21.44;45.19;99710.06;6212902;23;20004;-94
2023/03/12 11:21:29;;;;;;;21.25;4.45;;;;;;;20.30;48.10;99715.69;6236695;23;20008;-95
2023/03/12 11:23:57;;;;;;;21.60;4.63;;;;;;;19.46;49.28;99720.38;6211850;23;20075;-94
2023/03/12 11:26:30;;;;;;;27.38;5.00;;;;;;;17.34;53.32;99714.94;6210592;23;20035;-94